sensor_id;sensor_type;location;lat;lon;timestamp;pressure;altitude;pressure_sealevel;temperature;humidity
32237;BME280;18726;44.732;10.550;2022-11-15T00:00:12;101557.72;;;9.02;100.00
32237;BME280;18726;44.732;10.550;2022-11-15T00:03:34;101558.16;;;8.95;100.00
32237;BME280;18726;44.732;10.550;2022-11-15T00:06:57;101552.59;;;8.92;100.00
32237;BME280;18726;44.732;10.550;2022-11-15T00:10:19;101547.66;;;8.94;100.00
32237;BME280;18726;44.732;10.550;2022-11-15T00:13:42;101554.06;;;9.06;100.00
32237;BME280;18726;44.732;10.550;2022-11-15T00:20:22;101556.09;;;10.01;100.00
32237;BME280;18726;44.732;10.550;2022-11-15T00:23:44;101554.47;;;10.00;100.00
32237;BME280;18726;44.732;10.550;2022-11-15T00:27:06;101544.44;;;10.00;100.00
32237;BME280;18726;44.732;10.550;2022-11-15T00:30:28;101553.03;;;10.20;100.00
32237;BME280;18726;44.732;10.550;2022-11-15T00:33:50;101545.16;;;10.44;100.00
32237;BME280;18726;44.732;10.550;2022-11-15T00:37:13;101546.97;;;10.23;100.00
32237;BME280;18726;44.732;10.550;2022-11-15T00:40:35;101544.91;;;10.02;100.00
32237;BME280;18726;44.732;10.550;2022-11-15T00:43:57;101543.47;;;9.96;100.00
32237;BME280;18726;44.732;10.550;2022-11-15T00:47:19;101545.94;;;10.53;100.00
32237;BME280;18726;44.732;10.550;2022-11-15T00:50:42;101539.84;;;10.56;100.00
32237;BME280;18726;44.732;10.550;2022-11-15T00:54:04;101544.97;;;10.96;100.00
32237;BME280;18726;44.732;10.550;2022-11-15T00:57:26;101539.88;;;10.94;100.00
32237;BME280;18726;44.732;10.550;2022-11-15T01:00:49;101544.59;;;11.06;100.00
32237;BME280;18726;44.732;10.550;2022-11-15T01:04:11;101546.75;;;10.92;100.00
32237;BME280;18726;44.732;10.550;2022-11-15T01:07:34;101538.59;;;10.92;100.00
32237;BME280;18726;44.732;10.550;2022-11-15T01:11:06;101543.91;;;11.18;100.00
32237;BME280;18726;44.732;10.550;2022-11-15T01:14:29;101537.66;;;11.17;100.00
32237;BME280;18726;44.732;10.550;2022-11-15T01:17:51;101543.06;;;11.26;100.00
32237;BME280;18726;44.732;10.550;2022-11-15T01:21:15;101539.03;;;11.53;100.00
32237;BME280;18726;44.732;10.550;2022-11-15T01:24:37;101544.66;;;10.59;100.00
32237;BME280;18726;44.732;10.550;2022-11-15T01:28:00;101527.91;;;10.87;100.00
32237;BME280;18726;44.732;10.550;2022-11-15T01:31:22;101532.75;;;10.72;100.00
32237;BME280;18726;44.732;10.550;2022-11-15T01:34:44;101534.63;;;10.80;100.00
32237;BME280;18726;44.732;10.550;2022-11-15T01:38:06;101529.97;;;11.19;100.00
32237;BME280;18726;44.732;10.550;2022-11-15T01:41:31;101527.25;;;11.40;100.00
32237;BME280;18726;44.732;10.550;2022-11-15T01:44:54;101522.53;;;11.28;100.00
32237;BME280;18726;44.732;10.550;2022-11-15T01:48:16;101523.75;;;11.39;100.00
32237;BME280;18726;44.732;10.550;2022-11-15T01:51:39;101520.03;;;11.44;100.00
32237;BME280;18726;44.732;10.550;2022-11-15T01:55:05;101513.59;;;11.48;100.00
32237;BME280;18726;44.732;10.550;2022-11-15T01:58:29;101505.44;;;11.48;100.00
32237;BME280;18726;44.732;10.550;2022-11-15T02:01:51;101508.75;;;10.74;100.00
32237;BME280;18726;44.732;10.550;2022-11-15T02:05:14;101502.88;;;10.26;100.00
32237;BME280;18726;44.732;10.550;2022-11-15T02:08:36;101510.25;;;9.99;100.00
32237;BME280;18726;44.732;10.550;2022-11-15T02:11:58;101501.44;;;10.28;100.00
32237;BME280;18726;44.732;10.550;2022-11-15T02:15:21;101498.19;;;10.81;100.00
32237;BME280;18726;44.732;10.550;2022-11-15T02:19:12;101496.78;;;11.05;100.00
32237;BME280;18726;44.732;10.550;2022-11-15T02:22:33;101485.34;;;10.91;100.00
32237;BME280;18726;44.732;10.550;2022-11-15T02:30:17;101464.28;;;10.03;100.00
32237;BME280;18726;44.732;10.550;2022-11-15T02:36:54;101454.97;;;10.30;100.00
32237;BME280;18726;44.732;10.550;2022-11-15T02:44:00;101446.75;;;8.97;100.00
32237;BME280;18726;44.732;10.550;2022-11-15T02:47:24;101430.19;;;8.41;100.00
32237;BME280;18726;44.732;10.550;2022-11-15T02:50:49;101429.66;;;8.31;100.00
32237;BME280;18726;44.732;10.550;2022-11-15T02:54:14;101426.22;;;9.13;100.00
32237;BME280;18726;44.732;10.550;2022-11-15T03:11:43;101427.00;;;10.88;100.00
32237;BME280;18726;44.732;10.550;2022-11-15T03:15:16;101429.34;;;10.69;100.00
32237;BME280;18726;44.732;10.550;2022-11-15T03:18:41;101429.53;;;11.35;100.00
32237;BME280;18726;44.732;10.550;2022-11-15T03:22:06;101414.28;;;11.42;100.00
32237;BME280;18726;44.732;10.550;2022-11-15T03:25:31;101410.69;;;11.09;100.00
32237;BME280;18726;44.732;10.550;2022-11-15T03:29:01;101417.78;;;10.51;100.00
32237;BME280;18726;44.732;10.550;2022-11-15T03:32:26;101428.53;;;9.83;100.00
32237;BME280;18726;44.732;10.550;2022-11-15T03:35:50;101428.84;;;9.82;100.00
32237;BME280;18726;44.732;10.550;2022-11-15T03:39:14;101431.41;;;10.72;100.00
32237;BME280;18726;44.732;10.550;2022-11-15T03:42:39;101425.97;;;11.22;100.00
32237;BME280;18726;44.732;10.550;2022-11-15T03:46:13;101410.38;;;11.64;100.00
32237;BME280;18726;44.732;10.550;2022-11-15T03:49:37;101436.44;;;10.91;100.00
32237;BME280;18726;44.732;10.550;2022-11-15T03:53:02;101426.69;;;10.31;100.00
32237;BME280;18726;44.732;10.550;2022-11-15T03:56:24;101428.19;;;10.02;100.00
32237;BME280;18726;44.732;10.550;2022-11-15T03:59:46;101422.94;;;10.44;100.00
32237;BME280;18726;44.732;10.550;2022-11-15T04:03:08;101417.44;;;10.14;100.00
32237;BME280;18726;44.732;10.550;2022-11-15T04:06:30;101411.47;;;10.38;100.00
32237;BME280;18726;44.732;10.550;2022-11-15T04:09:52;101405.47;;;10.15;100.00
32237;BME280;18726;44.732;10.550;2022-11-15T04:13:24;101412.25;;;9.92;100.00
32237;BME280;18726;44.732;10.550;2022-11-15T04:16:46;101418.78;;;10.00;100.00
32237;BME280;18726;44.732;10.550;2022-11-15T04:20:22;101410.09;;;10.15;100.00
32237;BME280;18726;44.732;10.550;2022-11-15T04:24:04;101399.44;;;10.01;100.00
32237;BME280;18726;44.732;10.550;2022-11-15T04:27:29;101408.31;;;9.81;100.00
32237;BME280;18726;44.732;10.550;2022-11-15T04:30:51;101408.63;;;9.71;100.00
32237;BME280;18726;44.732;10.550;2022-11-15T04:34:13;101398.75;;;9.66;100.00
32237;BME280;18726;44.732;10.550;2022-11-15T04:37:35;101401.78;;;9.65;100.00
32237;BME280;18726;44.732;10.550;2022-11-15T04:40:57;101399.06;;;9.65;100.00
32237;BME280;18726;44.732;10.550;2022-11-15T04:44:20;101404.66;;;9.60;100.00
32237;BME280;18726;44.732;10.550;2022-11-15T04:47:45;101410.06;;;9.60;100.00
32237;BME280;18726;44.732;10.550;2022-11-15T04:51:07;101394.75;;;9.64;100.00
32237;BME280;18726;44.732;10.550;2022-11-15T04:54:29;101401.63;;;9.61;100.00
32237;BME280;18726;44.732;10.550;2022-11-15T04:58:01;101398.59;;;9.63;100.00
32237;BME280;18726;44.732;10.550;2022-11-15T05:01:24;101388.22;;;9.65;100.00
32237;BME280;18726;44.732;10.550;2022-11-15T05:04:46;101385.66;;;9.68;100.00
32237;BME280;18726;44.732;10.550;2022-11-15T05:08:08;101392.03;;;9.81;100.00
32237;BME280;18726;44.732;10.550;2022-11-15T05:11:31;101386.34;;;10.03;100.00
32237;BME280;18726;44.732;10.550;2022-11-15T05:14:53;101392.22;;;10.23;100.00
32237;BME280;18726;44.732;10.550;2022-11-15T05:18:15;101390.44;;;10.27;100.00
32237;BME280;18726;44.732;10.550;2022-11-15T05:21:38;101385.13;;;10.39;100.00
32237;BME280;18726;44.732;10.550;2022-11-15T05:25:00;101376.38;;;10.54;100.00
32237;BME280;18726;44.732;10.550;2022-11-15T05:28:22;101376.75;;;10.44;100.00
32237;BME280;18726;44.732;10.550;2022-11-15T05:31:44;101383.88;;;10.57;100.00
32237;BME280;18726;44.732;10.550;2022-11-15T05:35:07;101375.03;;;10.90;100.00
32237;BME280;18726;44.732;10.550;2022-11-15T05:38:30;101375.34;;;11.63;100.00
32237;BME280;18726;44.732;10.550;2022-11-15T05:41:58;101376.81;;;12.17;100.00
32237;BME280;18726;44.732;10.550;2022-11-15T05:45:23;101372.03;;;12.02;100.00
32237;BME280;18726;44.732;10.550;2022-11-15T05:48:46;101367.16;;;11.96;100.00
32237;BME280;18726;44.732;10.550;2022-11-15T05:52:11;101367.50;;;11.61;100.00
32237;BME280;18726;44.732;10.550;2022-11-15T05:55:37;101365.25;;;11.30;100.00
32237;BME280;18726;44.732;10.550;2022-11-15T05:58:59;101379.41;;;11.03;100.00
32237;BME280;18726;44.732;10.550;2022-11-15T06:02:21;101383.09;;;10.77;100.00
32237;BME280;18726;44.732;10.550;2022-11-15T06:05:43;101380.25;;;10.74;100.00
32237;BME280;18726;44.732;10.550;2022-11-15T06:09:06;101380.97;;;10.62;100.00
32237;BME280;18726;44.732;10.550;2022-11-15T06:12:28;101370.50;;;10.52;100.00
32237;BME280;18726;44.732;10.550;2022-11-15T06:15:50;101377.69;;;10.77;100.00
32237;BME280;18726;44.732;10.550;2022-11-15T06:19:12;101374.16;;;10.98;100.00
32237;BME280;18726;44.732;10.550;2022-11-15T06:22:35;101378.63;;;11.23;100.00
32237;BME280;18726;44.732;10.550;2022-11-15T06:25:57;101380.31;;;11.94;100.00
32237;BME280;18726;44.732;10.550;2022-11-15T06:29:19;101377.25;;;11.83;100.00
32237;BME280;18726;44.732;10.550;2022-11-15T06:32:42;101375.22;;;12.04;100.00
32237;BME280;18726;44.732;10.550;2022-11-15T06:36:04;101379.53;;;12.17;100.00
32237;BME280;18726;44.732;10.550;2022-11-15T06:39:27;101380.66;;;11.59;100.00
32237;BME280;18726;44.732;10.550;2022-11-15T06:42:49;101384.44;;;11.13;100.00
32237;BME280;18726;44.732;10.550;2022-11-15T06:46:11;101382.84;;;11.12;100.00
32237;BME280;18726;44.732;10.550;2022-11-15T06:49:33;101385.50;;;11.21;100.00
32237;BME280;18726;44.732;10.550;2022-11-15T06:52:59;101378.59;;;11.56;100.00
32237;BME280;18726;44.732;10.550;2022-11-15T06:56:22;101391.97;;;11.49;100.00
32237;BME280;18726;44.732;10.550;2022-11-15T06:59:44;101384.44;;;11.13;100.00
32237;BME280;18726;44.732;10.550;2022-11-15T07:03:07;101390.13;;;10.99;100.00
32237;BME280;18726;44.732;10.550;2022-11-15T07:06:29;101385.03;;;10.98;100.00
32237;BME280;18726;44.732;10.550;2022-11-15T07:09:51;101392.19;;;10.81;100.00
32237;BME280;18726;44.732;10.550;2022-11-15T07:13:13;101390.75;;;11.05;100.00
32237;BME280;18726;44.732;10.550;2022-11-15T07:16:36;101393.56;;;11.29;100.00
32237;BME280;18726;44.732;10.550;2022-11-15T07:19:58;101390.19;;;11.32;100.00
32237;BME280;18726;44.732;10.550;2022-11-15T07:23:21;101393.72;;;11.12;100.00
32237;BME280;18726;44.732;10.550;2022-11-15T07:26:43;101389.72;;;11.30;100.00
32237;BME280;18726;44.732;10.550;2022-11-15T07:30:06;101385.00;;;11.72;100.00
32237;BME280;18726;44.732;10.550;2022-11-15T07:33:28;101388.13;;;11.95;100.00
32237;BME280;18726;44.732;10.550;2022-11-15T07:36:50;101388.03;;;12.04;100.00
32237;BME280;18726;44.732;10.550;2022-11-15T07:40:12;101384.88;;;12.50;100.00
32237;BME280;18726;44.732;10.550;2022-11-15T07:43:35;101384.53;;;12.03;100.00
32237;BME280;18726;44.732;10.550;2022-11-15T07:46:57;101380.56;;;12.01;100.00
32237;BME280;18726;44.732;10.550;2022-11-15T07:50:20;101371.81;;;11.95;100.00
32237;BME280;18726;44.732;10.550;2022-11-15T07:53:42;101376.88;;;11.84;100.00
32237;BME280;18726;44.732;10.550;2022-11-15T07:57:05;101380.47;;;12.09;100.00
32237;BME280;18726;44.732;10.550;2022-11-15T08:00:29;101367.72;;;12.13;100.00
32237;BME280;18726;44.732;10.550;2022-11-15T08:03:53;101368.41;;;12.23;100.00
32237;BME280;18726;44.732;10.550;2022-11-15T08:07:15;101361.84;;;11.99;100.00
32237;BME280;18726;44.732;10.550;2022-11-15T08:10:37;101361.81;;;11.87;100.00
32237;BME280;18726;44.732;10.550;2022-11-15T08:14:00;101360.94;;;12.07;100.00
32237;BME280;18726;44.732;10.550;2022-11-15T08:17:25;101372.84;;;12.03;100.00
32237;BME280;18726;44.732;10.550;2022-11-15T08:20:47;101366.16;;;12.12;100.00
32237;BME280;18726;44.732;10.550;2022-11-15T08:24:10;101368.19;;;12.28;100.00
32237;BME280;18726;44.732;10.550;2022-11-15T08:27:32;101367.50;;;12.55;100.00
32237;BME280;18726;44.732;10.550;2022-11-15T08:30:55;101373.75;;;12.56;100.00
32237;BME280;18726;44.732;10.550;2022-11-15T08:34:17;101371.72;;;12.40;100.00
32237;BME280;18726;44.732;10.550;2022-11-15T08:37:39;101368.19;;;12.28;100.00
32237;BME280;18726;44.732;10.550;2022-11-15T08:41:02;101363.88;;;12.14;100.00
32237;BME280;18726;44.732;10.550;2022-11-15T08:44:25;101367.19;;;12.08;100.00
32237;BME280;18726;44.732;10.550;2022-11-15T08:47:47;101366.13;;;12.49;100.00
32237;BME280;18726;44.732;10.550;2022-11-15T08:51:10;101366.34;;;12.68;100.00
32237;BME280;18726;44.732;10.550;2022-11-15T08:54:32;101365.91;;;12.66;100.00
32237;BME280;18726;44.732;10.550;2022-11-15T08:57:56;101365.78;;;13.03;100.00
32237;BME280;18726;44.732;10.550;2022-11-15T09:01:19;101356.41;;;13.28;100.00
32237;BME280;18726;44.732;10.550;2022-11-15T09:04:42;101359.28;;;13.47;100.00
32237;BME280;18726;44.732;10.550;2022-11-15T09:08:04;101358.25;;;13.68;100.00
32237;BME280;18726;44.732;10.550;2022-11-15T09:11:27;101348.66;;;13.90;100.00
32237;BME280;18726;44.732;10.550;2022-11-15T09:14:49;101350.06;;;13.99;100.00
32237;BME280;18726;44.732;10.550;2022-11-15T09:18:12;101360.22;;;14.14;100.00
32237;BME280;18726;44.732;10.550;2022-11-15T09:21:34;101354.31;;;13.97;100.00
32237;BME280;18726;44.732;10.550;2022-11-15T09:24:57;101358.97;;;14.28;100.00
32237;BME280;18726;44.732;10.550;2022-11-15T09:28:19;101360.03;;;13.76;100.00
32237;BME280;18726;44.732;10.550;2022-11-15T09:31:41;101355.59;;;13.56;100.00
32237;BME280;18726;44.732;10.550;2022-11-15T09:35:04;101352.97;;;13.75;100.00
32237;BME280;18726;44.732;10.550;2022-11-15T09:38:26;101355.28;;;13.73;100.00
32237;BME280;18726;44.732;10.550;2022-11-15T09:41:51;101351.66;;;14.00;100.00
32237;BME280;18726;44.732;10.550;2022-11-15T09:48:48;101354.03;;;13.86;100.00
32237;BME280;18726;44.732;10.550;2022-11-15T09:52:12;101347.13;;;13.61;100.00
32237;BME280;18726;44.732;10.550;2022-11-15T09:55:15;101347.28;;;13.36;100.00
32237;BME280;18726;44.732;10.550;2022-11-15T09:58:36;101340.91;;;13.32;100.00
32237;BME280;18726;44.732;10.550;2022-11-15T10:05:04;101338.47;;;13.27;100.00
32237;BME280;18726;44.732;10.550;2022-11-15T10:11:24;101318.81;;;13.22;100.00
32237;BME280;18726;44.732;10.550;2022-11-15T10:14:28;101312.88;;;13.63;100.00
32237;BME280;18726;44.732;10.550;2022-11-15T10:21:17;101302.41;;;14.12;100.00
32237;BME280;18726;44.732;10.550;2022-11-15T10:24:23;101305.28;;;14.19;100.00
32237;BME280;18726;44.732;10.550;2022-11-15T10:27:28;101304.19;;;14.40;100.00
32237;BME280;18726;44.732;10.550;2022-11-15T10:30:37;101291.81;;;14.62;100.00
32237;BME280;18726;44.732;10.550;2022-11-15T10:33:41;101286.41;;;14.30;100.00
32237;BME280;18726;44.732;10.550;2022-11-15T10:36:54;101277.66;;;14.40;100.00
32237;BME280;18726;44.732;10.550;2022-11-15T10:40:05;101269.06;;;14.58;100.00
32237;BME280;18726;44.732;10.550;2022-11-15T10:46:19;101261.34;;;14.82;100.00
32237;BME280;18726;44.732;10.550;2022-11-15T10:49:24;101251.44;;;14.94;100.00
32237;BME280;18726;44.732;10.550;2022-11-15T10:52:29;101241.47;;;15.05;100.00
32237;BME280;18726;44.732;10.550;2022-11-15T10:55:33;101249.56;;;14.98;100.00
32237;BME280;18726;44.732;10.550;2022-11-15T10:58:38;101244.91;;;15.02;100.00
32237;BME280;18726;44.732;10.550;2022-11-15T11:01:46;101226.63;;;15.06;100.00
32237;BME280;18726;44.732;10.550;2022-11-15T11:04:51;101228.63;;;15.09;100.00
32237;BME280;18726;44.732;10.550;2022-11-15T11:07:56;101236.50;;;15.10;100.00
32237;BME280;18726;44.732;10.550;2022-11-15T11:11:00;101228.84;;;15.19;100.00
32237;BME280;18726;44.732;10.550;2022-11-15T11:14:11;101221.00;;;15.18;100.00
32237;BME280;18726;44.732;10.550;2022-11-15T11:29:42;101194.78;;;15.17;100.00
32237;BME280;18726;44.732;10.550;2022-11-15T11:33:00;101199.09;;;15.18;100.00
32237;BME280;18726;44.732;10.550;2022-11-15T11:51:43;101166.25;;;15.18;100.00
32237;BME280;18726;44.732;10.550;2022-11-15T12:01:24;101168.75;;;15.04;100.00
32237;BME280;18726;44.732;10.550;2022-11-15T12:04:29;101160.44;;;14.97;100.00
32237;BME280;18726;44.732;10.550;2022-11-15T12:07:35;101157.75;;;15.00;100.00
32237;BME280;18726;44.732;10.550;2022-11-15T12:10:39;101149.72;;;15.11;100.00
32237;BME280;18726;44.732;10.550;2022-11-15T12:13:48;101143.03;;;15.08;100.00
32237;BME280;18726;44.732;10.550;2022-11-15T12:16:52;101152.31;;;15.04;100.00
32237;BME280;18726;44.732;10.550;2022-11-15T12:19:56;101140.34;;;15.12;100.00
32237;BME280;18726;44.732;10.550;2022-11-15T12:23:13;101140.91;;;15.21;100.00
32237;BME280;18726;44.732;10.550;2022-11-15T12:26:20;101143.41;;;15.30;100.00
32237;BME280;18726;44.732;10.550;2022-11-15T12:32:33;101132.81;;;15.28;100.00
32237;BME280;18726;44.732;10.550;2022-11-15T12:35:39;101121.88;;;15.28;100.00
32237;BME280;18726;44.732;10.550;2022-11-15T12:38:51;101114.84;;;15.31;100.00
32237;BME280;18726;44.732;10.550;2022-11-15T12:44:59;101101.94;;;15.31;100.00
32237;BME280;18726;44.732;10.550;2022-11-15T12:51:22;101084.41;;;15.36;100.00
32237;BME280;18726;44.732;10.550;2022-11-15T12:57:35;101071.63;;;15.17;100.00
32237;BME280;18726;44.732;10.550;2022-11-15T13:00:39;101072.25;;;15.07;100.00
32237;BME280;18726;44.732;10.550;2022-11-15T13:07:05;101075.78;;;14.84;100.00
32237;BME280;18726;44.732;10.550;2022-11-15T13:13:41;101059.31;;;14.81;100.00
32237;BME280;18726;44.732;10.550;2022-11-15T13:16:40;101060.00;;;14.74;100.00
32237;BME280;18726;44.732;10.550;2022-11-15T13:19:45;101056.00;;;14.68;100.00
32237;BME280;18726;44.732;10.550;2022-11-15T13:23:01;101056.78;;;14.69;100.00
32237;BME280;18726;44.732;10.550;2022-11-15T13:26:10;101051.25;;;14.65;100.00
32237;BME280;18726;44.732;10.550;2022-11-15T13:29:16;101045.91;;;14.72;100.00
32237;BME280;18726;44.732;10.550;2022-11-15T13:32:20;101042.56;;;14.82;100.00
32237;BME280;18726;44.732;10.550;2022-11-15T13:35:25;101046.44;;;14.81;100.00
32237;BME280;18726;44.732;10.550;2022-11-15T13:38:31;101036.28;;;14.82;100.00
32237;BME280;18726;44.732;10.550;2022-11-15T13:41:36;101039.03;;;14.82;100.00
32237;BME280;18726;44.732;10.550;2022-11-15T13:44:39;101027.03;;;14.41;100.00
32237;BME280;18726;44.732;10.550;2022-11-15T13:47:43;101032.00;;;13.97;100.00
32237;BME280;18726;44.732;10.550;2022-11-15T13:50:46;101032.66;;;13.90;100.00
32237;BME280;18726;44.732;10.550;2022-11-15T13:53:54;101034.00;;;14.00;100.00
32237;BME280;18726;44.732;10.550;2022-11-15T13:57:08;101031.44;;;14.07;100.00
32237;BME280;18726;44.732;10.550;2022-11-15T14:00:33;101028.19;;;14.01;100.00
32237;BME280;18726;44.732;10.550;2022-11-15T14:03:40;101026.47;;;14.12;100.00
32237;BME280;18726;44.732;10.550;2022-11-15T14:06:55;101025.69;;;14.12;100.00
32237;BME280;18726;44.732;10.550;2022-11-15T14:10:03;101018.91;;;14.06;100.00
32237;BME280;18726;44.732;10.550;2022-11-15T14:13:27;101006.47;;;14.08;100.00
32237;BME280;18726;44.732;10.550;2022-11-15T14:19:40;101012.53;;;13.98;100.00
32237;BME280;18726;44.732;10.550;2022-11-15T14:22:50;101008.94;;;13.94;100.00
32237;BME280;18726;44.732;10.550;2022-11-15T14:25:58;101012.53;;;13.98;100.00
32237;BME280;18726;44.732;10.550;2022-11-15T14:32:25;101012.59;;;14.02;100.00
32237;BME280;18726;44.732;10.550;2022-11-15T14:35:29;101012.66;;;14.05;100.00
32237;BME280;18726;44.732;10.550;2022-11-15T14:38:32;101013.81;;;14.04;100.00
32237;BME280;18726;44.732;10.550;2022-11-15T14:41:36;101019.44;;;13.92;100.00
32237;BME280;18726;44.732;10.550;2022-11-15T14:44:43;101006.91;;;13.91;100.00
32237;BME280;18726;44.732;10.550;2022-11-15T14:47:46;101006.19;;;13.94;100.00
32237;BME280;18726;44.732;10.550;2022-11-15T14:50:50;100995.28;;;13.94;100.00
32237;BME280;18726;44.732;10.550;2022-11-15T14:53:53;100985.13;;;13.95;100.00
32237;BME280;18726;44.732;10.550;2022-11-15T14:56:58;100994.69;;;14.04;100.00
32237;BME280;18726;44.732;10.550;2022-11-15T15:00:02;100993.84;;;14.00;100.00
32237;BME280;18726;44.732;10.550;2022-11-15T15:03:15;100988.38;;;14.00;100.00
32237;BME280;18726;44.732;10.550;2022-11-15T15:06:19;100982.84;;;13.97;100.00
32237;BME280;18726;44.732;10.550;2022-11-15T15:09:23;100984.78;;;13.96;100.00
32237;BME280;18726;44.732;10.550;2022-11-15T15:12:26;100982.41;;;13.95;100.00
32237;BME280;18726;44.732;10.550;2022-11-15T15:15:31;100975.38;;;13.94;100.00
32237;BME280;18726;44.732;10.550;2022-11-15T15:18:35;100978.53;;;13.96;100.00
32237;BME280;18726;44.732;10.550;2022-11-15T15:21:38;100984.69;;;14.12;100.00
32237;BME280;18726;44.732;10.550;2022-11-15T15:24:42;100964.22;;;14.02;100.00
32237;BME280;18726;44.732;10.550;2022-11-15T15:27:45;100967.59;;;13.96;100.00
32237;BME280;18726;44.732;10.550;2022-11-15T15:30:48;100970.34;;;13.96;100.00
32237;BME280;18726;44.732;10.550;2022-11-15T15:33:52;100970.69;;;13.94;100.00
32237;BME280;18726;44.732;10.550;2022-11-15T15:40:21;100961.28;;;13.92;100.00
32237;BME280;18726;44.732;10.550;2022-11-15T15:43:25;100956.59;;;13.92;100.00
32237;BME280;18726;44.732;10.550;2022-11-15T15:46:28;100948.59;;;13.80;100.00
32237;BME280;18726;44.732;10.550;2022-11-15T15:49:32;100949.31;;;13.77;100.00
32237;BME280;18726;44.732;10.550;2022-11-15T15:52:35;100938.09;;;13.82;100.00
32237;BME280;18726;44.732;10.550;2022-11-15T15:55:38;100934.94;;;13.80;100.00
32237;BME280;18726;44.732;10.550;2022-11-15T15:58:42;100927.03;;;13.75;100.00
32237;BME280;18726;44.732;10.550;2022-11-15T16:01:46;100931.66;;;13.71;100.00
32237;BME280;18726;44.732;10.550;2022-11-15T16:04:49;100937.81;;;13.68;100.00
32237;BME280;18726;44.732;10.550;2022-11-15T16:07:52;100926.47;;;13.66;100.00
32237;BME280;18726;44.732;10.550;2022-11-15T16:10:56;100924.69;;;13.54;100.00
32237;BME280;18726;44.732;10.550;2022-11-15T16:13:59;100915.84;;;13.41;100.00
32237;BME280;18726;44.732;10.550;2022-11-15T16:17:02;100926.91;;;13.29;100.00
32237;BME280;18726;44.732;10.550;2022-11-15T16:20:06;100919.09;;;13.28;100.00
32237;BME280;18726;44.732;10.550;2022-11-15T16:23:11;100928.19;;;13.35;100.00
32237;BME280;18726;44.732;10.550;2022-11-15T16:26:20;100922.75;;;13.35;100.00
32237;BME280;18726;44.732;10.550;2022-11-15T16:29:24;100917.81;;;13.41;100.00
32237;BME280;18726;44.732;10.550;2022-11-15T16:32:28;100912.34;;;13.41;100.00
32237;BME280;18726;44.732;10.550;2022-11-15T16:35:31;100912.41;;;13.44;100.00
32237;BME280;18726;44.732;10.550;2022-11-15T16:38:34;100908.75;;;13.37;100.00
32237;BME280;18726;44.732;10.550;2022-11-15T16:41:39;100906.31;;;13.51;100.00
32237;BME280;18726;44.732;10.550;2022-11-15T16:44:42;100909.09;;;13.35;100.00
32237;BME280;18726;44.732;10.550;2022-11-15T16:47:47;100904.44;;;13.36;100.00
32237;BME280;18726;44.732;10.550;2022-11-15T16:50:53;100889.38;;;13.23;100.00
32237;BME280;18726;44.732;10.550;2022-11-15T16:54:00;100898.19;;;13.35;100.00
32237;BME280;18726;44.732;10.550;2022-11-15T16:57:03;100887.81;;;13.22;100.00
32237;BME280;18726;44.732;10.550;2022-11-15T17:00:08;100886.81;;;13.14;100.00
32237;BME280;18726;44.732;10.550;2022-11-15T17:03:13;100887.53;;;13.11;100.00
32237;BME280;18726;44.732;10.550;2022-11-15T17:06:16;100891.13;;;13.15;100.00
32237;BME280;18726;44.732;10.550;2022-11-15T17:09:23;100893.38;;;13.29;100.00
32237;BME280;18726;44.732;10.550;2022-11-15T17:12:26;100897.41;;;13.35;100.00
32237;BME280;18726;44.732;10.550;2022-11-15T17:15:30;100882.97;;;13.34;100.00
32237;BME280;18726;44.732;10.550;2022-11-15T17:18:34;100878.53;;;13.26;100.00
32237;BME280;18726;44.732;10.550;2022-11-15T17:21:38;100876.19;;;13.25;100.00
32237;BME280;18726;44.732;10.550;2022-11-15T17:24:41;100875.94;;;13.33;100.00
32237;BME280;18726;44.732;10.550;2022-11-15T17:27:45;100874.50;;;13.39;100.00
32237;BME280;18726;44.732;10.550;2022-11-15T17:30:48;100875.38;;;13.24;100.00
32237;BME280;18726;44.732;10.550;2022-11-15T17:33:52;100875.94;;;13.33;100.00
32237;BME280;18726;44.732;10.550;2022-11-15T17:36:55;100864.72;;;13.38;100.00
32237;BME280;18726;44.732;10.550;2022-11-15T17:39:59;100877.78;;;13.29;100.00
32237;BME280;18726;44.732;10.550;2022-11-15T17:43:03;100870.91;;;13.35;100.00
32237;BME280;18726;44.732;10.550;2022-11-15T17:46:08;100888.00;;;13.32;100.00
32237;BME280;18726;44.732;10.550;2022-11-15T17:49:13;100872.66;;;13.24;100.00
32237;BME280;18726;44.732;10.550;2022-11-15T17:52:16;100871.50;;;13.25;100.00
32237;BME280;18726;44.732;10.550;2022-11-15T17:55:19;100865.59;;;13.42;100.00
32237;BME280;18726;44.732;10.550;2022-11-15T17:58:23;100865.59;;;13.42;100.00
32237;BME280;18726;44.732;10.550;2022-11-15T18:01:28;100859.41;;;13.45;100.00
32237;BME280;18726;44.732;10.550;2022-11-15T18:04:32;100865.59;;;13.42;100.00
32237;BME280;18726;44.732;10.550;2022-11-15T18:07:35;100862.50;;;13.44;100.00
32237;BME280;18726;44.732;10.550;2022-11-15T18:10:39;100858.56;;;13.41;100.00
32237;BME280;18726;44.732;10.550;2022-11-15T18:13:43;100860.06;;;13.39;100.00
32237;BME280;18726;44.732;10.550;2022-11-15T18:16:46;100859.72;;;13.40;100.00
32237;BME280;18726;44.732;10.550;2022-11-15T18:19:50;100854.59;;;13.39;100.00
32237;BME280;18726;44.732;10.550;2022-11-15T18:22:53;100853.03;;;13.38;100.00